createdAt,value
2018-10-19T00:01:07.553Z,62.75
2018-10-19T00:03:36.469Z,62.70
2018-10-19T00:06:05.477Z,62.80
2018-10-19T00:08:34.390Z,63.89
2018-10-19T00:11:03.359Z,63.18
2018-10-19T00:13:32.237Z,62.59
2018-10-19T00:16:01.162Z,62.40
2018-10-19T00:18:30.097Z,62.73
2018-10-19T00:20:59.038Z,62.48
2018-10-19T00:23:27.912Z,62.18
2018-10-19T00:25:56.809Z,62.43
2018-10-19T00:28:25.761Z,62.03
2018-10-19T00:30:54.674Z,61.43
2018-10-19T00:33:23.598Z,60.71
2018-10-19T00:35:52.518Z,60.93
2018-10-19T00:38:21.429Z,61.66
2018-10-19T00:40:50.341Z,61.14
2018-10-19T00:43:19.294Z,61.24
2018-10-19T00:45:48.202Z,61.49
2018-10-19T00:48:18.333Z,61.60
2018-10-19T00:50:47.242Z,61.78
2018-10-19T00:53:16.513Z,61.96
2018-10-19T00:55:45.321Z,61.89
2018-10-19T00:58:14.222Z,61.78
2018-10-19T01:00:43.456Z,61.77
2018-10-19T01:03:12.381Z,61.82
2018-10-19T01:05:41.654Z,61.71
2018-10-19T01:08:11.069Z,61.56
2018-10-19T01:10:40.023Z,61.47
2018-10-19T01:13:08.913Z,61.70
2018-10-19T01:15:37.841Z,61.87
2018-10-19T01:18:06.773Z,61.70
2018-10-19T01:20:35.682Z,62.16
2018-10-19T01:23:04.657Z,62.01
2018-10-19T01:25:33.529Z,61.94
2018-10-19T01:28:02.416Z,60.83
2018-10-19T01:30:31.336Z,60.15
2018-10-19T01:33:00.250Z,60.27
2018-10-19T01:35:29.154Z,60.60
2018-10-19T01:37:58.078Z,60.64
2018-10-19T01:40:27.033Z,61.01
2018-10-19T01:42:55.929Z,60.58
2018-10-19T01:45:24.849Z,60.51
2018-10-19T01:47:53.765Z,61.34
2018-10-19T01:50:22.682Z,61.78
2018-10-19T01:52:51.582Z,62.52
2018-10-19T01:55:20.513Z,62.99
2018-10-19T01:57:49.421Z,62.97
2018-10-19T02:00:18.309Z,63.16
2018-10-19T02:02:47.254Z,63.65
2018-10-19T02:05:16.278Z,63.75
2018-10-19T02:07:45.092Z,63.64
2018-10-19T02:10:14.018Z,64.33
2018-10-19T02:12:42.945Z,64.29
2018-10-19T02:15:11.915Z,64.43
2018-10-19T02:17:40.813Z,64.05
2018-10-19T02:20:09.718Z,63.77
2018-10-19T02:22:38.649Z,63.74
2018-10-19T02:25:07.616Z,64.41
2018-10-19T02:27:36.517Z,64.26
2018-10-19T02:30:06.381Z,65.01
2018-10-19T02:32:35.322Z,65.24
2018-10-19T02:35:04.270Z,64.83
2018-10-19T02:37:33.145Z,64.53
2018-10-19T02:40:02.137Z,64.88
2018-10-19T02:42:31.077Z,64.58
2018-10-19T02:45:00.054Z,64.81
2018-10-19T02:47:28.948Z,65.17
2018-10-19T02:49:57.845Z,65.55
2018-10-19T02:52:26.823Z,65.26
2018-10-19T02:54:55.713Z,65.62
2018-10-19T02:57:24.638Z,64.87
2018-10-19T02:59:53.547Z,65.35
2018-10-19T03:02:22.462Z,65.37
2018-10-19T03:04:51.362Z,65.06
2018-10-19T03:07:20.305Z,65.82
2018-10-19T03:09:49.201Z,65.89
2018-10-19T03:12:18.129Z,65.20
2018-10-19T03:14:47.049Z,65.51
2018-10-19T03:17:16.064Z,65.52
2018-10-19T03:19:44.902Z,65.24
2018-10-19T03:22:13.836Z,65.48
2018-10-19T03:24:42.754Z,65.48
2018-10-19T03:27:11.728Z,65.36
2018-10-19T03:29:40.582Z,65.20
2018-10-19T03:32:09.474Z,65.68
2018-10-19T03:34:38.386Z,65.62
2018-10-19T03:37:07.313Z,66.21
2018-10-19T03:39:36.242Z,65.83
2018-10-19T03:42:05.438Z,66.20
2018-10-19T03:44:34.354Z,65.89
2018-10-19T03:47:03.306Z,66.51
2018-10-19T03:49:32.209Z,66.61
2018-10-19T03:52:01.105Z,66.18
2018-10-19T03:54:30.025Z,65.68
2018-10-19T03:56:59.009Z,65.96
2018-10-19T03:59:27.890Z,65.77
2018-10-19T04:01:56.800Z,66.06
2018-10-19T04:04:25.730Z,65.85
2018-10-19T04:06:54.629Z,66.44
2018-10-19T04:09:23.541Z,65.49
2018-10-19T04:11:52.450Z,65.46
2018-10-19T04:14:21.361Z,66.20
2018-10-19T04:16:50.245Z,66.06
2018-10-19T04:19:19.189Z,65.91
2018-10-19T04:21:48.104Z,65.75
2018-10-19T04:24:17.037Z,65.85
2018-10-19T04:26:45.945Z,65.68
2018-10-19T04:29:14.923Z,65.04
2018-10-19T04:31:43.773Z,64.77
2018-10-19T04:34:12.702Z,64.92
2018-10-19T04:36:41.605Z,65.23
2018-10-19T04:39:10.681Z,65.03
2018-10-19T04:41:39.607Z,64.94
2018-10-19T04:44:08.514Z,64.53
2018-10-19T04:46:37.489Z,64.86
2018-10-19T04:49:06.433Z,64.82
2018-10-19T04:51:35.359Z,64.81
2018-10-19T04:54:04.290Z,65.30
2018-10-19T04:56:33.219Z,64.65
2018-10-19T04:59:02.171Z,64.78
2018-10-19T05:01:31.081Z,65.44
2018-10-19T05:04:00.002Z,65.23
2018-10-19T05:06:28.972Z,65.30
2018-10-19T05:08:57.866Z,64.95
2018-10-19T05:11:26.812Z,65.01
2018-10-19T05:13:55.804Z,64.87
2018-10-19T05:16:24.667Z,64.61
2018-10-19T05:18:53.602Z,65.25
2018-10-19T05:21:22.552Z,64.71
2018-10-19T05:23:51.465Z,64.86
2018-10-19T05:26:20.478Z,65.26
2018-10-19T05:28:49.384Z,65.47
2018-10-19T05:31:18.349Z,65.25
2018-10-19T05:33:47.265Z,65.16
2018-10-19T05:36:16.258Z,65.07
2018-10-19T05:38:45.185Z,65.36
2018-10-19T05:41:14.288Z,65.47
2018-10-19T05:43:43.297Z,65.31
2018-10-19T05:46:13.197Z,65.65
2018-10-19T05:48:43.171Z,65.62
2018-10-19T05:51:12.143Z,65.59
2018-10-19T05:53:42.274Z,66.06
2018-10-19T05:56:11.373Z,65.49
2018-10-19T05:58:40.179Z,66.09
2018-10-19T06:01:09.166Z,65.96
2018-10-19T06:03:38.126Z,66.29
2018-10-19T06:06:07.086Z,66.67
2018-10-19T06:08:35.977Z,69.08
2018-10-19T06:11:05.504Z,66.19
2018-10-19T06:13:34.609Z,64.89
2018-10-19T06:16:03.513Z,65.23
2018-10-19T06:18:32.694Z,64.98
2018-10-19T06:21:01.699Z,64.45
2018-10-19T06:23:30.574Z,64.87
2018-10-19T06:25:59.720Z,65.14
2018-10-19T06:28:28.650Z,65.83
2018-10-19T06:30:57.593Z,65.93
2018-10-19T06:33:26.548Z,64.45
2018-10-19T06:35:55.493Z,64.96
2018-10-19T06:38:24.464Z,65.54
2018-10-19T06:40:53.521Z,65.94
2018-10-19T06:43:22.422Z,65.67
2018-10-19T06:45:51.425Z,65.36
2018-10-19T06:48:20.402Z,65.91
2018-10-19T06:50:49.356Z,65.50
2018-10-19T06:53:18.294Z,65.09
2018-10-19T06:55:47.316Z,65.73
2018-10-19T06:58:16.267Z,66.13
2018-10-19T07:00:45.221Z,65.97
2018-10-19T07:03:14.175Z,66.06
2018-10-19T07:05:43.170Z,66.35
2018-10-19T07:08:12.065Z,65.95
2018-10-19T07:10:40.982Z,66.11
2018-10-19T07:13:09.929Z,66.53
2018-10-19T07:15:38.837Z,66.13
2018-10-19T07:18:07.814Z,65.45
2018-10-19T07:20:36.789Z,65.59
2018-10-19T07:23:05.756Z,65.86
2018-10-19T07:25:34.713Z,65.46
2018-10-19T07:28:03.617Z,65.46
2018-10-19T07:30:32.554Z,65.71
2018-10-19T07:33:01.478Z,65.21
2018-10-19T07:35:30.772Z,65.20
2018-10-19T07:38:00.060Z,65.27
2018-10-19T07:40:29.082Z,65.19
2018-10-19T07:42:58.537Z,65.02
2018-10-19T07:45:27.686Z,65.50
2018-10-19T07:47:56.902Z,65.75
2018-10-19T07:50:25.647Z,65.35
2018-10-19T07:52:54.577Z,65.52
2018-10-19T07:55:23.552Z,65.47
2018-10-19T07:57:52.465Z,65.21
2018-10-19T08:00:21.462Z,65.77
2018-10-19T08:02:50.313Z,65.26
2018-10-19T08:05:19.237Z,65.57
2018-10-19T08:07:48.281Z,64.98
2018-10-19T08:10:17.222Z,64.94
2018-10-19T08:12:46.148Z,65.76
2018-10-19T08:15:15.154Z,65.19
2018-10-19T08:17:44.095Z,65.01
2018-10-19T08:20:13.778Z,65.37
2018-10-19T08:22:42.659Z,65.20
2018-10-19T08:25:11.565Z,64.88
2018-10-19T08:27:40.520Z,65.19
2018-10-19T08:30:09.471Z,64.98
2018-10-19T08:32:38.420Z,66.72
2018-10-19T08:35:07.750Z,65.33
2018-10-19T08:37:36.665Z,64.95
2018-10-19T08:40:06.715Z,65.42
2018-10-19T08:42:35.658Z,64.27
2018-10-19T08:45:04.953Z,65.01
2018-10-19T08:47:33.857Z,65.03
2018-10-19T08:50:02.765Z,64.76
2018-10-19T08:52:31.723Z,64.50
2018-10-19T08:55:00.691Z,65.17
2018-10-19T08:57:29.601Z,65.40
2018-10-19T08:59:58.557Z,65.03
2018-10-19T09:02:27.445Z,65.31
2018-10-19T09:04:56.461Z,65.88
2018-10-19T09:07:25.473Z,65.89
2018-10-19T09:09:54.395Z,65.83
2018-10-19T09:12:23.374Z,65.35
2018-10-19T09:14:55.546Z,65.44
2018-10-19T09:17:24.521Z,65.45
2018-10-19T09:19:53.713Z,65.85
2018-10-19T09:22:22.710Z,66.30
2018-10-19T09:24:51.990Z,65.40
2018-10-19T09:27:21.098Z,65.95
2018-10-19T09:29:50.030Z,66.05
2018-10-19T09:32:18.961Z,66.04
2018-10-19T09:34:47.870Z,65.28
2018-10-19T09:37:16.823Z,65.50
2018-10-19T09:39:45.788Z,65.48
2018-10-19T09:42:14.783Z,65.51
2018-10-19T09:44:43.649Z,65.40
2018-10-19T09:47:12.608Z,64.70
2018-10-19T09:49:41.481Z,64.41
2018-10-19T09:52:10.393Z,64.25
2018-10-19T09:54:39.313Z,64.17
2018-10-19T09:57:08.616Z,64.25
2018-10-19T09:59:37.525Z,64.53
2018-10-19T10:02:06.484Z,65.04
2018-10-19T10:04:35.408Z,63.93
2018-10-19T10:07:04.700Z,63.61
2018-10-19T10:09:33.622Z,63.16
2018-10-19T10:12:02.529Z,62.55
2018-10-19T10:14:31.463Z,62.17
2018-10-19T10:17:00.443Z,62.43
2018-10-19T10:19:30.394Z,62.25
2018-10-19T10:21:59.367Z,62.37
2018-10-19T10:24:28.297Z,61.54
2018-10-19T10:26:57.197Z,61.54
2018-10-19T10:29:26.138Z,60.92
2018-10-19T10:31:55.102Z,60.57
2018-10-19T10:34:24.045Z,61.07
2018-10-19T10:36:53.048Z,60.78
2018-10-19T10:39:22.085Z,60.78
2018-10-19T10:41:50.922Z,60.32
2018-10-19T10:44:19.864Z,60.79
2018-10-19T10:46:48.810Z,60.39
2018-10-19T10:49:17.789Z,60.30
2018-10-19T10:51:46.657Z,59.14
2018-10-19T10:54:15.586Z,59.83
2018-10-19T10:56:44.509Z,58.66
2018-10-19T10:59:13.464Z,59.16
2018-10-19T11:01:42.371Z,59.12
2018-10-19T11:04:11.376Z,58.99
2018-10-19T11:06:40.947Z,58.86
2018-10-19T11:09:11.073Z,58.32
2018-10-19T11:11:40.061Z,58.55
2018-10-19T11:14:08.974Z,58.49
2018-10-19T11:16:37.901Z,58.50
2018-10-19T11:19:06.881Z,58.71
2018-10-19T11:21:35.766Z,58.21
2018-10-19T11:24:04.888Z,58.17
2018-10-19T11:26:33.721Z,58.16
2018-10-19T11:29:02.638Z,57.93
2018-10-19T11:31:31.588Z,58.35
2018-10-19T11:34:00.493Z,57.60
2018-10-19T11:36:29.449Z,57.34
2018-10-19T11:38:58.370Z,57.40
2018-10-19T11:41:27.300Z,55.86
2018-10-19T11:43:56.250Z,55.40
2018-10-19T11:46:25.189Z,54.57
2018-10-19T11:48:54.133Z,53.40
2018-10-19T11:51:23.037Z,54.72
2018-10-19T11:53:51.974Z,55.34
2018-10-19T11:56:20.992Z,54.43
2018-10-19T11:58:49.898Z,55.62
2018-10-19T12:01:18.893Z,55.43
2018-10-19T12:03:47.810Z,55.25
2018-10-19T12:06:16.776Z,54.88
2018-10-19T12:08:45.694Z,54.97
2018-10-19T12:11:14.628Z,55.86
2018-10-19T12:13:43.541Z,55.67
2018-10-19T12:16:12.606Z,55.29
2018-10-19T12:18:41.441Z,53.95
2018-10-19T12:21:10.411Z,53.80
2018-10-19T12:23:39.357Z,52.65
2018-10-19T12:26:08.407Z,53.13
2018-10-19T12:28:37.189Z,53.70
2018-10-19T12:31:06.294Z,53.20
2018-10-19T12:33:35.160Z,52.82
2018-10-19T12:36:04.748Z,53.73
2018-10-19T12:38:33.682Z,53.42
2018-10-19T12:41:02.601Z,52.06
2018-10-19T12:43:31.518Z,52.22
2018-10-19T12:46:21.316Z,52.14
2018-10-19T12:48:50.766Z,51.56
2018-10-19T12:51:20.385Z,51.62
2018-10-19T12:53:49.473Z,52.25
2018-10-19T12:56:19.914Z,52.35
2018-10-19T12:58:49.839Z,51.88
2018-10-19T13:01:19.015Z,52.21
2018-10-19T13:03:47.983Z,51.30
2018-10-19T13:06:16.873Z,51.34
2018-10-19T13:08:45.842Z,51.92
2018-10-19T13:11:14.783Z,50.66
2018-10-19T13:13:43.726Z,49.95
2018-10-19T13:16:12.702Z,50.48
2018-10-19T13:18:41.608Z,50.55
2018-10-19T13:21:11.117Z,51.08
2018-10-19T13:23:40.063Z,50.24
2018-10-19T13:26:08.993Z,49.67
2018-10-19T13:28:37.953Z,49.82
2018-10-19T13:31:06.947Z,49.47
2018-10-19T13:33:35.909Z,49.24
2018-10-19T13:36:05.076Z,49.83
2018-10-19T13:38:34.021Z,49.12
2018-10-19T13:41:02.945Z,49.58
2018-10-19T13:43:31.962Z,48.70
2018-10-19T13:46:00.910Z,49.45
2018-10-19T13:48:29.845Z,49.50
2018-10-19T13:50:58.795Z,49.22
2018-10-19T13:53:27.697Z,48.95
2018-10-19T13:55:56.621Z,49.76
2018-10-19T13:58:25.852Z,49.52
2018-10-19T14:00:54.709Z,48.31
2018-10-19T14:03:23.804Z,48.63
2018-10-19T14:05:52.754Z,48.87
2018-10-19T14:08:21.793Z,49.44
2018-10-19T14:10:50.717Z,49.46
2018-10-19T14:13:20.195Z,49.29
2018-10-19T14:15:49.113Z,48.52
2018-10-19T14:18:18.293Z,49.27
2018-10-19T14:20:47.261Z,49.40
2018-10-19T14:23:16.238Z,48.68
2018-10-19T14:25:45.385Z,49.05
2018-10-19T14:28:14.310Z,48.94
2018-10-19T14:30:43.250Z,48.83
2018-10-19T14:33:12.232Z,49.14
2018-10-19T14:35:41.162Z,49.26
2018-10-19T14:38:10.095Z,49.18
2018-10-19T14:40:39.070Z,49.61
2018-10-19T14:43:08.004Z,48.85
2018-10-19T14:45:36.940Z,49.62
2018-10-19T14:48:05.856Z,49.96
2018-10-19T14:50:34.783Z,49.88
2018-10-19T14:53:03.709Z,50.21
2018-10-19T14:55:33.450Z,50.04
2018-10-19T14:58:02.358Z,50.11
2018-10-19T15:00:31.294Z,50.08
2018-10-19T15:03:00.203Z,50.14
2018-10-19T15:05:29.133Z,50.54
2018-10-19T15:07:58.046Z,49.99
2018-10-19T15:10:27.214Z,50.52
2018-10-19T15:12:55.965Z,50.86
2018-10-19T15:15:24.910Z,50.12
2018-10-19T15:17:53.879Z,51.44
2018-10-19T15:20:22.810Z,52.10
2018-10-19T15:22:51.760Z,52.00
2018-10-19T15:25:20.689Z,52.87
2018-10-19T15:27:49.608Z,52.91
2018-10-19T15:30:19.530Z,53.32
2018-10-19T15:32:48.409Z,53.70
2018-10-19T15:35:17.412Z,54.28
2018-10-19T15:37:46.317Z,54.54
2018-10-19T15:40:15.241Z,54.31
2018-10-19T15:42:44.166Z,54.45
2018-10-19T15:45:13.517Z,55.02
2018-10-19T15:47:42.453Z,54.49
2018-10-19T15:50:11.377Z,54.61
2018-10-19T15:52:40.300Z,54.15
2018-10-19T15:55:09.305Z,54.64
2018-10-19T15:57:38.197Z,54.37
2018-10-19T16:00:09.049Z,54.21
2018-10-19T16:02:37.995Z,54.76
2018-10-19T16:05:06.931Z,55.38
2018-10-19T16:07:35.874Z,55.35
2018-10-19T16:10:05.600Z,55.72
2018-10-19T16:12:34.543Z,55.70
2018-10-19T16:15:03.543Z,55.19
2018-10-19T16:17:32.479Z,55.45
2018-10-19T16:20:01.342Z,55.31
2018-10-19T16:22:30.277Z,55.77
2018-10-19T16:24:59.175Z,55.81
2018-10-19T16:27:28.200Z,55.62
2018-10-19T16:29:57.083Z,55.50
2018-10-19T16:32:25.987Z,55.65
2018-10-19T16:34:54.955Z,55.24
2018-10-19T16:37:23.845Z,55.39
2018-10-19T16:39:52.769Z,55.57
2018-10-19T16:42:21.718Z,55.93
2018-10-19T16:44:50.661Z,56.29
2018-10-19T16:47:19.606Z,56.61
2018-10-19T16:49:48.522Z,56.42
2018-10-19T16:52:17.543Z,57.11
2018-10-19T16:54:46.430Z,57.05
2018-10-19T16:57:15.511Z,57.57
2018-10-19T16:59:44.366Z,57.93
2018-10-19T17:02:13.307Z,57.68
2018-10-19T17:04:42.281Z,57.53
2018-10-19T17:07:11.185Z,56.92
2018-10-19T17:09:40.166Z,56.53
2018-10-19T17:12:09.178Z,56.19
2018-10-19T17:14:38.278Z,54.90
2018-10-19T17:17:08.093Z,55.31
2018-10-19T17:19:37.025Z,55.21
2018-10-19T17:22:06.081Z,54.62
2018-10-19T17:24:35.013Z,54.56
2018-10-19T17:27:03.962Z,54.71
2018-10-19T17:29:32.973Z,54.82
2018-10-19T17:32:01.904Z,54.28
2018-10-19T17:34:30.845Z,53.93
2018-10-19T17:36:59.883Z,54.32
2018-10-19T17:39:28.828Z,53.87
2018-10-19T17:41:57.784Z,54.56
2018-10-19T17:44:26.733Z,54.43
2018-10-19T17:46:55.750Z,54.63
2018-10-19T17:49:24.645Z,54.65
2018-10-19T17:51:53.575Z,55.13
2018-10-19T17:54:22.540Z,55.01
2018-10-19T17:56:51.645Z,55.10
2018-10-19T17:59:20.627Z,54.81
2018-10-19T18:01:49.546Z,55.36
2018-10-19T18:04:18.505Z,55.93
2018-10-19T18:06:47.457Z,55.11
2018-10-19T18:09:16.471Z,55.88
2018-10-19T18:11:45.438Z,55.48
2018-10-19T18:14:14.298Z,55.45
2018-10-19T18:16:43.229Z,55.54
2018-10-19T18:19:12.199Z,55.59
2018-10-19T18:21:41.160Z,55.38
2018-10-19T18:24:10.111Z,55.51
2018-10-19T18:26:39.861Z,55.52
2018-10-19T18:29:08.970Z,55.71
2018-10-19T18:31:37.831Z,56.07
2018-10-19T18:34:06.781Z,56.25
2018-10-19T18:36:35.750Z,56.85
2018-10-19T18:39:06.645Z,57.60
2018-10-19T18:41:35.609Z,57.45
2018-10-19T18:44:05.113Z,57.41
2018-10-19T18:46:34.019Z,57.04
2018-10-19T18:49:02.945Z,57.62
2018-10-19T18:51:31.955Z,57.39
2018-10-19T18:54:00.885Z,57.36
2018-10-19T18:56:29.889Z,58.05
2018-10-19T18:58:58.862Z,58.10
2018-10-19T19:01:27.849Z,58.23
2018-10-19T19:03:56.775Z,58.11
2018-10-19T19:06:25.717Z,58.23
2018-10-19T19:08:54.661Z,58.16
2018-10-19T19:11:23.617Z,58.29
2018-10-19T19:13:52.566Z,58.18
2018-10-19T19:16:27.443Z,57.81
2018-10-19T19:18:56.697Z,58.49
2018-10-19T19:21:25.774Z,58.35
2018-10-19T19:23:59.906Z,58.75
2018-10-19T19:26:28.965Z,58.73
2018-10-19T19:28:58.317Z,59.11
2018-10-19T19:31:27.265Z,58.75
2018-10-19T19:34:01.462Z,58.84
2018-10-19T19:36:30.401Z,58.72
2018-10-19T19:38:59.345Z,58.50
2018-10-19T19:41:33.662Z,58.18
2018-10-19T19:44:02.759Z,58.43
2018-10-19T19:46:31.703Z,58.43
2018-10-19T19:49:05.923Z,58.16
2018-10-19T19:51:34.870Z,58.28
2018-10-19T19:54:03.814Z,58.21
2018-10-19T19:56:32.809Z,58.45
2018-10-19T19:59:01.795Z,58.19
2018-10-19T20:01:30.790Z,58.27
2018-10-19T20:03:59.723Z,57.97
2018-10-19T20:06:28.665Z,58.17
2018-10-19T20:08:57.695Z,57.57
2018-10-19T20:11:26.645Z,57.86
2018-10-19T20:13:55.606Z,57.89
2018-10-19T20:16:24.533Z,57.93
2018-10-19T20:18:53.465Z,57.71
2018-10-19T20:21:22.954Z,58.12
2018-10-19T20:23:51.898Z,58.75
2018-10-19T20:26:20.823Z,58.54
2018-10-19T20:28:49.741Z,59.21
2018-10-19T20:31:18.670Z,59.92
2018-10-19T20:33:47.620Z,59.92
2018-10-19T20:36:16.529Z,60.20
2018-10-19T20:38:45.470Z,60.00
2018-10-19T20:41:14.391Z,59.94
2018-10-19T20:43:43.326Z,59.94
2018-10-19T20:46:12.245Z,59.97
2018-10-19T20:48:41.170Z,60.42
2018-10-19T20:51:10.110Z,60.90
2018-10-19T20:53:39.046Z,60.65
2018-10-19T20:56:07.991Z,60.95
2018-10-19T20:58:36.881Z,60.89
2018-10-19T21:01:05.861Z,60.87
2018-10-19T21:03:34.818Z,60.89
2018-10-19T21:06:03.759Z,61.23
2018-10-19T21:08:33.481Z,61.24
2018-10-19T21:11:02.435Z,60.68
2018-10-19T21:13:31.357Z,60.19
2018-10-19T21:16:00.291Z,60.31
2018-10-19T21:18:29.241Z,60.54
2018-10-19T21:20:58.154Z,60.95
2018-10-19T21:23:27.087Z,61.67
2018-10-19T21:25:56.047Z,61.49
2018-10-19T21:28:25.013Z,61.68
2018-10-19T21:30:54.787Z,61.33
2018-10-19T21:33:23.733Z,61.50
2018-10-19T21:35:52.687Z,61.12
2018-10-19T21:38:21.609Z,61.15
2018-10-19T21:40:50.513Z,60.69
2018-10-19T21:43:19.449Z,60.05
2018-10-19T21:45:51.435Z,59.90
2018-10-19T21:48:20.357Z,59.09
2018-10-19T21:50:49.291Z,59.11
2018-10-19T21:53:18.197Z,59.07
2018-10-19T21:55:47.246Z,58.43
2018-10-19T21:58:16.600Z,58.48
2018-10-19T22:00:45.602Z,58.87
2018-10-19T22:03:14.515Z,58.71
2018-10-19T22:05:43.449Z,58.74
2018-10-19T22:08:12.402Z,58.87
2018-10-19T22:10:41.321Z,59.11
2018-10-19T22:13:10.374Z,58.98
2018-10-19T22:15:39.193Z,58.61
2018-10-19T22:18:08.771Z,58.88
2018-10-19T22:20:37.746Z,58.70
2018-10-19T22:23:07.422Z,58.72
2018-10-19T22:25:36.309Z,58.96
2018-10-19T22:28:06.021Z,59.45
2018-10-19T22:30:34.973Z,59.55
2018-10-19T22:33:04.479Z,59.62
2018-10-19T22:35:33.449Z,59.19
2018-10-19T22:38:02.361Z,59.74
2018-10-19T22:40:31.281Z,59.13
2018-10-19T22:43:00.234Z,59.47
2018-10-19T22:45:29.101Z,59.57
2018-10-19T22:47:58.001Z,59.18
2018-10-19T22:50:26.925Z,58.74
2018-10-19T22:52:56.113Z,58.57
2018-10-19T22:55:25.013Z,59.21
2018-10-19T22:57:53.966Z,59.38
2018-10-19T23:00:22.885Z,58.75
2018-10-19T23:02:51.806Z,58.50
2018-10-19T23:05:20.766Z,58.48
2018-10-19T23:07:49.673Z,58.84
2018-10-19T23:10:18.609Z,58.24
2018-10-19T23:12:47.514Z,58.68
2018-10-19T23:15:16.451Z,59.11
2018-10-19T23:17:45.366Z,58.91
2018-10-19T23:20:14.290Z,59.09
2018-10-19T23:22:43.206Z,59.69
2018-10-19T23:25:12.636Z,59.34
2018-10-19T23:27:41.567Z,59.58
2018-10-19T23:30:10.485Z,60.08
2018-10-19T23:32:40.406Z,59.76
2018-10-19T23:35:09.346Z,60.27
2018-10-19T23:37:38.382Z,60.06
2018-10-19T23:40:07.589Z,59.80
2018-10-19T23:42:36.532Z,59.88
2018-10-19T23:45:06.634Z,59.73
2018-10-19T23:47:35.581Z,59.93
2018-10-19T23:50:04.669Z,59.97
2018-10-19T23:52:33.603Z,59.85
2018-10-19T23:55:02.599Z,59.99
2018-10-19T23:57:32.534Z,59.55
